sensor_id;sensor_type;location;lat;lon;timestamp;pressure;altitude;pressure_sealevel;temperature;humidity
71465;BME280;59274;49.874;9.154;2024-02-21T00:01:50;101271.09;;;6.90;100.00
71465;BME280;59274;49.874;9.154;2024-02-21T00:04:15;101268.28;;;6.78;100.00
71465;BME280;59274;49.874;9.154;2024-02-21T00:06:41;101256.66;;;6.86;100.00
71465;BME280;59274;49.874;9.154;2024-02-21T00:09:06;101258.03;;;7.09;100.00
71465;BME280;59274;49.874;9.154;2024-02-21T00:11:32;101261.19;;;7.11;100.00
71465;BME280;59274;49.874;9.154;2024-02-21T00:13:57;101254.53;;;7.08;100.00
71465;BME280;59274;49.874;9.154;2024-02-21T00:16:23;101252.47;;;7.05;100.00
71465;BME280;59274;49.874;9.154;2024-02-21T00:18:48;101240.59;;;6.98;100.00
71465;BME280;59274;49.874;9.154;2024-02-21T00:21:14;101239.63;;;7.02;100.00
71465;BME280;59274;49.874;9.154;2024-02-21T00:23:44;101230.88;;;7.05;100.00
71465;BME280;59274;49.874;9.154;2024-02-21T00:26:11;101234.38;;;7.06;100.00
71465;BME280;59274;49.874;9.154;2024-02-21T00:28:38;101234.19;;;7.11;100.00
71465;BME280;59274;49.874;9.154;2024-02-21T00:31:03;101219.72;;;7.16;100.00
71465;BME280;59274;49.874;9.154;2024-02-21T00:33:28;101220.50;;;7.16;100.00
71465;BME280;59274;49.874;9.154;2024-02-21T00:35:54;101214.75;;;7.18;100.00
71465;BME280;59274;49.874;9.154;2024-02-21T00:38:19;101214.88;;;7.30;100.00
71465;BME280;59274;49.874;9.154;2024-02-21T00:40:45;101224.38;;;7.36;100.00
71465;BME280;59274;49.874;9.154;2024-02-21T00:43:11;101217.28;;;7.31;100.00
71465;BME280;59274;49.874;9.154;2024-02-21T00:45:36;101204.69;;;7.35;100.00
71465;BME280;59274;49.874;9.154;2024-02-21T00:48:02;101209.00;;;7.28;100.00
71465;BME280;59274;49.874;9.154;2024-02-21T00:50:27;101206.59;;;7.35;100.00
71465;BME280;59274;49.874;9.154;2024-02-21T00:52:53;101200.06;;;7.36;100.00
71465;BME280;59274;49.874;9.154;2024-02-21T00:55:18;101198.63;;;7.38;100.00
71465;BME280;59274;49.874;9.154;2024-02-21T00:57:44;101197.97;;;7.41;100.00
71465;BME280;59274;49.874;9.154;2024-02-21T01:00:09;101191.16;;;7.35;100.00
71465;BME280;59274;49.874;9.154;2024-02-21T01:02:35;101196.69;;;7.39;100.00
71465;BME280;59274;49.874;9.154;2024-02-21T01:05:02;101182.69;;;7.45;100.00
71465;BME280;59274;49.874;9.154;2024-02-21T01:07:27;101178.13;;;7.37;100.00
71465;BME280;59274;49.874;9.154;2024-02-21T01:09:53;101167.97;;;7.34;100.00
71465;BME280;59274;49.874;9.154;2024-02-21T01:12:18;101163.22;;;7.31;100.00
71465;BME280;59274;49.874;9.154;2024-02-21T01:14:44;101151.63;;;7.31;100.00
71465;BME280;59274;49.874;9.154;2024-02-21T01:17:11;101144.63;;;7.30;100.00
71465;BME280;59274;49.874;9.154;2024-02-21T01:19:37;101147.97;;;7.27;100.00
71465;BME280;59274;49.874;9.154;2024-02-21T01:22:04;101127.44;;;7.34;100.00
71465;BME280;59274;49.874;9.154;2024-02-21T01:24:29;101129.63;;;7.41;100.00
71465;BME280;59274;49.874;9.154;2024-02-21T01:26:55;101119.91;;;7.40;100.00
71465;BME280;59274;49.874;9.154;2024-02-21T01:29:20;101132.31;;;7.41;100.00
71465;BME280;59274;49.874;9.154;2024-02-21T01:31:46;101136.84;;;7.28;100.00
71465;BME280;59274;49.874;9.154;2024-02-21T01:34:12;101129.13;;;7.18;100.00
71465;BME280;59274;49.874;9.154;2024-02-21T01:36:38;101129.50;;;7.08;100.00
71465;BME280;59274;49.874;9.154;2024-02-21T01:39:03;101125.53;;;7.05;100.00
71465;BME280;59274;49.874;9.154;2024-02-21T01:41:32;101125.84;;;7.04;100.00
71465;BME280;59274;49.874;9.154;2024-02-21T01:43:57;101119.53;;;7.00;100.00
71465;BME280;59274;49.874;9.154;2024-02-21T01:46:24;101129.81;;;7.06;100.00
71465;BME280;59274;49.874;9.154;2024-02-21T01:48:54;101131.25;;;7.04;100.00
71465;BME280;59274;49.874;9.154;2024-02-21T01:51:19;101128.84;;;7.11;100.00
71465;BME280;59274;49.874;9.154;2024-02-21T01:53:45;101132.84;;;7.05;100.00
71465;BME280;59274;49.874;9.154;2024-02-21T01:56:12;101127.59;;;7.08;100.00
71465;BME280;59274;49.874;9.154;2024-02-21T01:58:40;101131.53;;;7.11;100.00
71465;BME280;59274;49.874;9.154;2024-02-21T02:01:06;101122.63;;;7.11;100.00
71465;BME280;59274;49.874;9.154;2024-02-21T02:03:32;101126.66;;;7.04;100.00
71465;BME280;59274;49.874;9.154;2024-02-21T02:05:57;101125.22;;;7.07;100.00
71465;BME280;59274;49.874;9.154;2024-02-21T02:08:23;101122.53;;;7.07;100.00
71465;BME280;59274;49.874;9.154;2024-02-21T02:10:48;101118.72;;;7.08;100.00
71465;BME280;59274;49.874;9.154;2024-02-21T02:13:14;101109.13;;;7.11;100.00
71465;BME280;59274;49.874;9.154;2024-02-21T02:15:46;101108.09;;;7.03;100.00
71465;BME280;59274;49.874;9.154;2024-02-21T02:18:13;101097.94;;;7.00;100.00
71465;BME280;59274;49.874;9.154;2024-02-21T02:20:39;101100.75;;;7.03;100.00
71465;BME280;59274;49.874;9.154;2024-02-21T02:23:31;101098.72;;;7.00;100.00
71465;BME280;59274;49.874;9.154;2024-02-21T02:25:56;101098.13;;;6.95;100.00
71465;BME280;59274;49.874;9.154;2024-02-21T02:28:22;101091.63;;;6.96;100.00
71465;BME280;59274;49.874;9.154;2024-02-21T02:30:48;101109.00;;;7.07;100.00
71465;BME280;59274;49.874;9.154;2024-02-21T02:33:14;101108.19;;;7.15;100.00
71465;BME280;59274;49.874;9.154;2024-02-21T02:35:40;101102.56;;;7.20;100.00
71465;BME280;59274;49.874;9.154;2024-02-21T02:38:05;101101.59;;;7.25;100.00
71465;BME280;59274;49.874;9.154;2024-02-21T02:40:32;101112.81;;;7.35;100.00
71465;BME280;59274;49.874;9.154;2024-02-21T02:42:58;101111.97;;;7.43;100.00
71465;BME280;59274;49.874;9.154;2024-02-21T02:45:24;101094.94;;;7.43;100.00
71465;BME280;59274;49.874;9.154;2024-02-21T02:47:52;101095.75;;;7.43;100.00
71465;BME280;59274;49.874;9.154;2024-02-21T02:50:19;101098.28;;;7.40;100.00
71465;BME280;59274;49.874;9.154;2024-02-21T02:52:45;101096.00;;;7.30;100.00
71465;BME280;59274;49.874;9.154;2024-02-21T02:55:11;101088.22;;;7.28;100.00
71465;BME280;59274;49.874;9.154;2024-02-21T02:57:37;101085.63;;;7.32;100.00
71465;BME280;59274;49.874;9.154;2024-02-21T03:00:03;101070.91;;;7.29;100.00
71465;BME280;59274;49.874;9.154;2024-02-21T03:02:29;101066.72;;;7.32;100.00
71465;BME280;59274;49.874;9.154;2024-02-21T03:04:56;101064.81;;;7.32;100.00
71465;BME280;59274;49.874;9.154;2024-02-21T03:07:23;101070.31;;;7.24;100.00
71465;BME280;59274;49.874;9.154;2024-02-21T03:09:49;101050.25;;;7.25;100.00
71465;BME280;59274;49.874;9.154;2024-02-21T03:12:15;101051.72;;;7.22;100.00
71465;BME280;59274;49.874;9.154;2024-02-21T03:14:52;101041.19;;;7.29;100.00
71465;BME280;59274;49.874;9.154;2024-02-21T03:17:18;101049.66;;;7.19;100.00
71465;BME280;59274;49.874;9.154;2024-02-21T03:19:43;101052.56;;;7.14;100.00
71465;BME280;59274;49.874;9.154;2024-02-21T03:22:09;101042.50;;;7.02;100.00
71465;BME280;59274;49.874;9.154;2024-02-21T03:24:34;101043.00;;;6.96;100.00
71465;BME280;59274;49.874;9.154;2024-02-21T03:27:00;101043.09;;;6.79;100.00
71465;BME280;59274;49.874;9.154;2024-02-21T03:29:25;101050.94;;;6.72;100.00
71465;BME280;59274;49.874;9.154;2024-02-21T03:31:51;101053.16;;;6.69;100.00
71465;BME280;59274;49.874;9.154;2024-02-21T03:34:20;101046.34;;;6.63;100.00
71465;BME280;59274;49.874;9.154;2024-02-21T03:36:45;101040.56;;;6.53;100.00
71465;BME280;59274;49.874;9.154;2024-02-21T03:39:10;101032.78;;;6.51;100.00
71465;BME280;59274;49.874;9.154;2024-02-21T03:41:36;101030.44;;;6.41;100.00
71465;BME280;59274;49.874;9.154;2024-02-21T03:44:02;101027.31;;;6.31;100.00
71465;BME280;59274;49.874;9.154;2024-02-21T03:46:27;101030.34;;;6.29;100.00
71465;BME280;59274;49.874;9.154;2024-02-21T03:48:53;101029.41;;;6.25;100.00
71465;BME280;59274;49.874;9.154;2024-02-21T03:51:19;101016.75;;;6.17;100.00
71465;BME280;59274;49.874;9.154;2024-02-21T03:53:47;101014.03;;;6.17;100.00
71465;BME280;59274;49.874;9.154;2024-02-21T03:56:13;101012.47;;;6.07;100.00
71465;BME280;59274;49.874;9.154;2024-02-21T03:58:38;101013.75;;;6.10;100.00
71465;BME280;59274;49.874;9.154;2024-02-21T04:01:04;101014.28;;;5.95;100.00
71465;BME280;59274;49.874;9.154;2024-02-21T04:03:30;101018.25;;;5.88;100.00
71465;BME280;59274;49.874;9.154;2024-02-21T04:05:56;101005.25;;;5.82;100.00
71465;BME280;59274;49.874;9.154;2024-02-21T04:08:22;101018.06;;;5.76;100.00
71465;BME280;59274;49.874;9.154;2024-02-21T04:10:51;101013.34;;;5.73;100.00
71465;BME280;59274;49.874;9.154;2024-02-21T04:13:17;101013.34;;;5.73;100.00
71465;BME280;59274;49.874;9.154;2024-02-21T04:15:43;101021.44;;;5.73;100.00
71465;BME280;59274;49.874;9.154;2024-02-21T04:18:08;101016.97;;;5.69;100.00
71465;BME280;59274;49.874;9.154;2024-02-21T04:20:34;101017.31;;;5.67;100.00
71465;BME280;59274;49.874;9.154;2024-02-21T04:23:01;101016.53;;;5.58;100.00
71465;BME280;59274;49.874;9.154;2024-02-21T04:25:26;101015.13;;;5.52;100.00
71465;BME280;59274;49.874;9.154;2024-02-21T04:27:52;101015.13;;;5.52;100.00
71465;BME280;59274;49.874;9.154;2024-02-21T04:30:18;101019.84;;;5.55;100.00
71465;BME280;59274;49.874;9.154;2024-02-21T04:32:44;101021.13;;;5.58;100.00
71465;BME280;59274;49.874;9.154;2024-02-21T04:35:10;101014.16;;;5.57;100.00
71465;BME280;59274;49.874;9.154;2024-02-21T04:37:35;101013.22;;;5.61;100.00
71465;BME280;59274;49.874;9.154;2024-02-21T04:40:07;101008.44;;;5.58;100.00
71465;BME280;59274;49.874;9.154;2024-02-21T04:42:35;100999.75;;;5.61;100.00
71465;BME280;59274;49.874;9.154;2024-02-21T04:45:01;101002.56;;;5.65;100.00
71465;BME280;59274;49.874;9.154;2024-02-21T04:47:27;101001.63;;;5.61;100.00
71465;BME280;59274;49.874;9.154;2024-02-21T04:49:53;100985.47;;;5.52;100.00
71465;BME280;59274;49.874;9.154;2024-02-21T04:52:22;100987.38;;;5.51;100.00
71465;BME280;59274;49.874;9.154;2024-02-21T04:54:47;100980.91;;;5.44;100.00
71465;BME280;59274;49.874;9.154;2024-02-21T04:57:13;100983.28;;;5.37;100.00
71465;BME280;59274;49.874;9.154;2024-02-21T04:59:45;100957.75;;;5.34;100.00
71465;BME280;59274;49.874;9.154;2024-02-21T05:02:13;100955.88;;;5.26;100.00
71465;BME280;59274;49.874;9.154;2024-02-21T05:04:38;100950.81;;;5.25;100.00
71465;BME280;59274;49.874;9.154;2024-02-21T05:07:04;100940.69;;;5.22;100.00
71465;BME280;59274;49.874;9.154;2024-02-21T05:09:30;100932.13;;;5.20;100.00
71465;BME280;59274;49.874;9.154;2024-02-21T05:11:56;100924.84;;;5.20;100.00
71465;BME280;59274;49.874;9.154;2024-02-21T05:14:21;100921.22;;;5.16;100.00
71465;BME280;59274;49.874;9.154;2024-02-21T05:16:46;100926.13;;;5.14;100.00
71465;BME280;59274;49.874;9.154;2024-02-21T05:19:12;100932.28;;;5.15;100.00
71465;BME280;59274;49.874;9.154;2024-02-21T05:21:37;100935.78;;;5.06;100.00
71465;BME280;59274;49.874;9.154;2024-02-21T05:24:03;100932.28;;;5.06;100.00
71465;BME280;59274;49.874;9.154;2024-02-21T05:26:28;100932.94;;;5.03;100.00
71465;BME280;59274;49.874;9.154;2024-02-21T05:28:54;100925.00;;;4.98;100.00
71465;BME280;59274;49.874;9.154;2024-02-21T05:31:20;100920.09;;;5.00;100.00
71465;BME280;59274;49.874;9.154;2024-02-21T05:33:47;100920.75;;;4.97;100.00
71465;BME280;59274;49.874;9.154;2024-02-21T05:36:13;100925.19;;;4.93;100.00
71465;BME280;59274;49.874;9.154;2024-02-21T05:38:39;100925.34;;;4.96;100.00
71465;BME280;59274;49.874;9.154;2024-02-21T05:41:04;100935.47;;;4.91;100.00
71465;BME280;59274;49.874;9.154;2024-02-21T05:43:33;100938.16;;;4.99;100.00
71465;BME280;59274;49.874;9.154;2024-02-21T05:45:58;100938.31;;;5.03;100.00
71465;BME280;59274;49.874;9.154;2024-02-21T05:48:24;100934.97;;;4.97;100.00
71465;BME280;59274;49.874;9.154;2024-02-21T05:50:50;100936.13;;;4.96;100.00
71465;BME280;59274;49.874;9.154;2024-02-21T05:53:15;100941.31;;;4.93;100.00
71465;BME280;59274;49.874;9.154;2024-02-21T05:55:41;100947.50;;;4.93;100.00
71465;BME280;59274;49.874;9.154;2024-02-21T05:58:07;100946.25;;;4.82;100.00
71465;BME280;59274;49.874;9.154;2024-02-21T06:00:33;100952.25;;;4.79;100.00
71465;BME280;59274;49.874;9.154;2024-02-21T06:02:58;100952.88;;;4.76;100.00
71465;BME280;59274;49.874;9.154;2024-02-21T06:05:24;100945.13;;;4.75;100.00
71465;BME280;59274;49.874;9.154;2024-02-21T06:07:50;100944.47;;;4.78;100.00
71465;BME280;59274;49.874;9.154;2024-02-21T06:10:16;100953.19;;;4.75;100.00
71465;BME280;59274;49.874;9.154;2024-02-21T06:12:41;100943.53;;;4.73;100.00
71465;BME280;59274;49.874;9.154;2024-02-21T06:15:07;100935.78;;;4.72;100.00
71465;BME280;59274;49.874;9.154;2024-02-21T06:17:32;100929.13;;;4.69;100.00
71465;BME280;59274;49.874;9.154;2024-02-21T06:19:58;100926.91;;;4.63;100.00
71465;BME280;59274;49.874;9.154;2024-02-21T06:22:23;100924.22;;;4.63;100.00
71465;BME280;59274;49.874;9.154;2024-02-21T06:24:49;100925.78;;;4.64;100.00
71465;BME280;59274;49.874;9.154;2024-02-21T06:27:15;100922.00;;;4.73;100.00
71465;BME280;59274;49.874;9.154;2024-02-21T06:29:41;100916.31;;;4.84;100.00
71465;BME280;59274;49.874;9.154;2024-02-21T06:32:07;100919.66;;;4.89;100.00
71465;BME280;59274;49.874;9.154;2024-02-21T06:34:33;100917.72;;;4.98;100.00
71465;BME280;59274;49.874;9.154;2024-02-21T06:36:58;100916.94;;;5.06;100.00
71465;BME280;59274;49.874;9.154;2024-02-21T06:39:24;100903.97;;;5.08;100.00
71465;BME280;59274;49.874;9.154;2024-02-21T06:41:49;100911.38;;;5.11;100.00
71465;BME280;59274;49.874;9.154;2024-02-21T06:44:19;100911.06;;;5.04;100.00
71465;BME280;59274;49.874;9.154;2024-02-21T06:46:45;100915.50;;;5.00;100.00
71465;BME280;59274;49.874;9.154;2024-02-21T06:49:10;100916.00;;;5.11;100.00
71465;BME280;59274;49.874;9.154;2024-02-21T06:51:44;100912.19;;;5.03;100.00
71465;BME280;59274;49.874;9.154;2024-02-21T06:54:12;100915.22;;;5.10;100.00
71465;BME280;59274;49.874;9.154;2024-02-21T06:56:39;100917.56;;;5.12;100.00
71465;BME280;59274;49.874;9.154;2024-02-21T06:59:05;100913.63;;;5.09;100.00
71465;BME280;59274;49.874;9.154;2024-02-21T07:01:30;100914.84;;;5.21;100.00
71465;BME280;59274;49.874;9.154;2024-02-21T07:03:56;100918.63;;;5.37;100.00
71465;BME280;59274;49.874;9.154;2024-02-21T07:06:22;100906.09;;;5.49;100.00
71465;BME280;59274;49.874;9.154;2024-02-21T07:08:47;100902.91;;;5.56;100.00
71465;BME280;59274;49.874;9.154;2024-02-21T07:11:13;100896.75;;;5.47;100.00
71465;BME280;59274;49.874;9.154;2024-02-21T07:13:38;100890.09;;;5.53;100.00
71465;BME280;59274;49.874;9.154;2024-02-21T07:16:04;100884.53;;;5.49;100.00
71465;BME280;59274;49.874;9.154;2024-02-21T07:18:30;100887.22;;;5.49;100.00
71465;BME280;59274;49.874;9.154;2024-02-21T07:20:56;100888.22;;;5.45;100.00
71465;BME280;59274;49.874;9.154;2024-02-21T07:23:21;100895.47;;;5.53;100.00
71465;BME280;59274;49.874;9.154;2024-02-21T07:25:50;100896.22;;;5.62;100.00
71465;BME280;59274;49.874;9.154;2024-02-21T07:28:16;100898.41;;;5.69;100.00
71465;BME280;59274;49.874;9.154;2024-02-21T07:30:45;100890.31;;;5.77;100.00
71465;BME280;59274;49.874;9.154;2024-02-21T07:33:10;100890.09;;;5.91;100.00
71465;BME280;59274;49.874;9.154;2024-02-21T07:35:36;100889.28;;;5.99;100.00
71465;BME280;59274;49.874;9.154;2024-02-21T07:38:04;100889.94;;;5.96;100.00
71465;BME280;59274;49.874;9.154;2024-02-21T07:40:30;100883.53;;;6.09;100.00
71465;BME280;59274;49.874;9.154;2024-02-21T07:42:55;100876.16;;;6.18;100.00
71465;BME280;59274;49.874;9.154;2024-02-21T07:45:21;100879.75;;;6.31;100.00
71465;BME280;59274;49.874;9.154;2024-02-21T07:47:49;100876.22;;;6.39;100.00
71465;BME280;59274;49.874;9.154;2024-02-21T07:50:14;100879.94;;;6.47;100.00
71465;BME280;59274;49.874;9.154;2024-02-21T07:52:40;100882.16;;;6.53;100.00
71465;BME280;59274;49.874;9.154;2024-02-21T07:55:05;100882.16;;;6.53;100.00
71465;BME280;59274;49.874;9.154;2024-02-21T07:57:31;100882.19;;;6.65;100.00
71465;BME280;59274;49.874;9.154;2024-02-21T07:59:56;100889.97;;;6.67;100.00
71465;BME280;59274;49.874;9.154;2024-02-21T08:02:22;100880.22;;;6.75;100.00
71465;BME280;59274;49.874;9.154;2024-02-21T08:04:48;100872.81;;;6.84;100.00
71465;BME280;59274;49.874;9.154;2024-02-21T08:07:13;100876.91;;;6.90;100.00
71465;BME280;59274;49.874;9.154;2024-02-21T08:09:39;100875.72;;;6.99;100.00
71465;BME280;59274;49.874;9.154;2024-02-21T08:12:05;100871.22;;;7.03;100.00
71465;BME280;59274;49.874;9.154;2024-02-21T08:14:31;100877.25;;;7.21;100.00
71465;BME280;59274;49.874;9.154;2024-02-21T08:16:56;100879.88;;;7.30;100.00
71465;BME280;59274;49.874;9.154;2024-02-21T08:19:22;100873.69;;;7.41;100.00
71465;BME280;59274;49.874;9.154;2024-02-21T08:21:50;100872.56;;;7.42;100.00
71465;BME280;59274;49.874;9.154;2024-02-21T08:24:16;100870.75;;;7.46;100.00
71465;BME280;59274;49.874;9.154;2024-02-21T08:26:42;100871.56;;;7.47;100.00
71465;BME280;59274;49.874;9.154;2024-02-21T08:29:07;100865.41;;;7.59;100.00
71465;BME280;59274;49.874;9.154;2024-02-21T08:31:33;100859.88;;;7.67;100.00
71465;BME280;59274;49.874;9.154;2024-02-21T08:33:59;100860.69;;;7.80;100.00
71465;BME280;59274;49.874;9.154;2024-02-21T08:36:32;100850.88;;;7.88;100.00
71465;BME280;59274;49.874;9.154;2024-02-21T08:38:58;100848.97;;;7.88;100.00
71465;BME280;59274;49.874;9.154;2024-02-21T08:41:27;100841.63;;;8.01;100.00
71465;BME280;59274;49.874;9.154;2024-02-21T08:43:53;100835.75;;;8.11;100.00
71465;BME280;59274;49.874;9.154;2024-02-21T08:46:20;100839.69;;;8.13;100.00
71465;BME280;59274;49.874;9.154;2024-02-21T08:48:46;100841.59;;;8.13;100.00
71465;BME280;59274;49.874;9.154;2024-02-21T08:51:12;100838.91;;;8.13;100.00
71465;BME280;59274;49.874;9.154;2024-02-21T08:53:38;100828.41;;;8.23;100.00
71465;BME280;59274;49.874;9.154;2024-02-21T08:56:04;100832.56;;;8.21;100.00
71465;BME280;59274;49.874;9.154;2024-02-21T08:58:29;100832.25;;;8.22;100.00
71465;BME280;59274;49.874;9.154;2024-02-21T09:00:55;100833.47;;;8.25;100.00
71465;BME280;59274;49.874;9.154;2024-02-21T09:03:22;100832.25;;;8.35;100.00
71465;BME280;59274;49.874;9.154;2024-02-21T09:05:47;100828.63;;;8.43;100.00
71465;BME280;59274;49.874;9.154;2024-02-21T09:08:12;100821.16;;;8.52;100.00
71465;BME280;59274;49.874;9.154;2024-02-21T09:10:39;100825.19;;;8.58;100.00
71465;BME280;59274;49.874;9.154;2024-02-21T09:13:05;100828.03;;;8.77;100.00
71465;BME280;59274;49.874;9.154;2024-02-21T09:15:32;100825.59;;;8.72;100.00
71465;BME280;59274;49.874;9.154;2024-02-21T09:17:58;100817.59;;;8.91;100.00
71465;BME280;59274;49.874;9.154;2024-02-21T09:20:24;100808.59;;;8.87;100.00
71465;BME280;59274;49.874;9.154;2024-02-21T09:22:52;100809.31;;;9.00;100.00
71465;BME280;59274;49.874;9.154;2024-02-21T09:25:18;100809.84;;;9.06;100.00
71465;BME280;59274;49.874;9.154;2024-02-21T09:27:44;100805.84;;;9.15;100.00
71465;BME280;59274;49.874;9.154;2024-02-21T09:30:10;100812.91;;;9.20;100.00
71465;BME280;59274;49.874;9.154;2024-02-21T09:32:37;100803.91;;;9.00;100.00
71465;BME280;59274;49.874;9.154;2024-02-21T09:35:03;100800.22;;;9.08;100.00
71465;BME280;59274;49.874;9.154;2024-02-21T09:37:31;100803.03;;;9.12;100.00
71465;BME280;59274;49.874;9.154;2024-02-21T09:39:56;100798.56;;;9.19;100.00
71465;BME280;59274;49.874;9.154;2024-02-21T09:42:27;100786.78;;;9.27;100.00
71465;BME280;59274;49.874;9.154;2024-02-21T09:44:58;100788.34;;;9.28;100.00
71465;BME280;59274;49.874;9.154;2024-02-21T09:47:43;100793.16;;;9.51;100.00
71465;BME280;59274;49.874;9.154;2024-02-21T09:50:09;100792.97;;;9.59;100.00
71465;BME280;59274;49.874;9.154;2024-02-21T09:52:36;100794.00;;;9.70;100.00
71465;BME280;59274;49.874;9.154;2024-02-21T09:55:03;100793.28;;;9.73;100.00
71465;BME280;59274;49.874;9.154;2024-02-21T09:57:30;100794.28;;;9.65;100.00
71465;BME280;59274;49.874;9.154;2024-02-21T09:59:57;100791.63;;;9.85;100.00
71465;BME280;59274;49.874;9.154;2024-02-21T10:02:24;100797.06;;;9.85;100.00
71465;BME280;59274;49.874;9.154;2024-02-21T10:04:49;100787.88;;;9.73;100.00
71465;BME280;59274;49.874;9.154;2024-02-21T10:07:15;100785.06;;;9.86;100.00
71465;BME280;59274;49.874;9.154;2024-02-21T10:09:40;100787.94;;;9.93;100.00
71465;BME280;59274;49.874;9.154;2024-02-21T10:12:11;100775.72;;;10.02;100.00
71465;BME280;59274;49.874;9.154;2024-02-21T10:14:37;100769.00;;;9.96;100.00
71465;BME280;59274;49.874;9.154;2024-02-21T10:17:03;100773.09;;;10.06;100.00
71465;BME280;59274;49.874;9.154;2024-02-21T10:19:34;100770.53;;;10.13;100.00
71465;BME280;59274;49.874;9.154;2024-02-21T10:22:10;100772.84;;;10.30;100.00
71465;BME280;59274;49.874;9.154;2024-02-21T10:24:36;100756.22;;;10.32;100.00
71465;BME280;59274;49.874;9.154;2024-02-21T10:27:09;100762.66;;;10.43;100.00
71465;BME280;59274;49.874;9.154;2024-02-21T10:29:36;100758.56;;;10.72;100.00
71465;BME280;59274;49.874;9.154;2024-02-21T10:34:32;100742.53;;;10.67;100.00
71465;BME280;59274;49.874;9.154;2024-02-21T10:39:35;100737.72;;;11.02;100.00
71465;BME280;59274;49.874;9.154;2024-02-21T10:42:02;100733.47;;;11.01;100.00
71465;BME280;59274;49.874;9.154;2024-02-21T10:44:36;100722.94;;;11.22;100.00
71465;BME280;59274;49.874;9.154;2024-02-21T10:47:07;100718.38;;;11.30;100.00
71465;BME280;59274;49.874;9.154;2024-02-21T10:49:38;100714.94;;;11.33;100.00
71465;BME280;59274;49.874;9.154;2024-02-21T10:52:15;100709.97;;;11.38;100.00
71465;BME280;59274;49.874;9.154;2024-02-21T10:57:21;100688.84;;;11.28;100.00
71465;BME280;59274;49.874;9.154;2024-02-21T10:59:48;100689.94;;;11.24;100.00
71465;BME280;59274;49.874;9.154;2024-02-21T11:02:15;100696.47;;;11.19;100.00
71465;BME280;59274;49.874;9.154;2024-02-21T11:04:41;100694.53;;;11.20;100.00
71465;BME280;59274;49.874;9.154;2024-02-21T11:07:07;100686.81;;;11.22;100.00
71465;BME280;59274;49.874;9.154;2024-02-21T11:09:34;100690.81;;;11.05;100.00
71465;BME280;59274;49.874;9.154;2024-02-21T11:12:04;100678.66;;;11.22;100.00
71465;BME280;59274;49.874;9.154;2024-02-21T11:14:30;100673.50;;;11.17;100.00
71465;BME280;59274;49.874;9.154;2024-02-21T11:17:02;100665.13;;;11.03;100.00
71465;BME280;59274;49.874;9.154;2024-02-21T11:19:29;100659.03;;;11.09;100.00
71465;BME280;59274;49.874;9.154;2024-02-21T11:21:58;100664.00;;;11.30;99.92
71465;BME280;59274;49.874;9.154;2024-02-21T11:29:40;100657.13;;;11.36;95.47
71465;BME280;59274;49.874;9.154;2024-02-21T11:32:09;100641.19;;;11.38;95.76
71465;BME280;59274;49.874;9.154;2024-02-21T11:34:35;100635.28;;;11.32;94.68
71465;BME280;59274;49.874;9.154;2024-02-21T11:37:00;100638.25;;;11.20;96.92
71465;BME280;59274;49.874;9.154;2024-02-21T11:39:26;100635.88;;;11.19;92.87
71465;BME280;59274;49.874;9.154;2024-02-21T11:42:06;100620.34;;;11.19;97.56
71465;BME280;59274;49.874;9.154;2024-02-21T11:44:34;100618.56;;;11.04;96.15
71465;BME280;59274;49.874;9.154;2024-02-21T11:46:59;100608.16;;;11.10;95.56
71465;BME280;59274;49.874;9.154;2024-02-21T11:49:26;100614.03;;;11.12;93.73
71465;BME280;59274;49.874;9.154;2024-02-21T11:52:01;100612.53;;;11.14;94.13
71465;BME280;59274;49.874;9.154;2024-02-21T11:54:29;100603.94;;;11.12;91.01
71465;BME280;59274;49.874;9.154;2024-02-21T11:56:55;100602.28;;;11.04;93.46
71465;BME280;59274;49.874;9.154;2024-02-21T11:59:21;100595.72;;;11.09;93.06
71465;BME280;59274;49.874;9.154;2024-02-21T12:01:48;100587.31;;;11.17;94.27
71465;BME280;59274;49.874;9.154;2024-02-21T12:04:14;100593.50;;;11.14;94.06
71465;BME280;59274;49.874;9.154;2024-02-21T12:06:39;100586.47;;;11.13;93.70
71465;BME280;59274;49.874;9.154;2024-02-21T12:09:13;100573.81;;;11.24;91.47
71465;BME280;59274;49.874;9.154;2024-02-21T12:11:39;100569.94;;;11.25;92.35
71465;BME280;59274;49.874;9.154;2024-02-21T12:14:05;100571.69;;;11.41;89.81
71465;BME280;59274;49.874;9.154;2024-02-21T12:16:32;100567.00;;;11.37;88.61
71465;BME280;59274;49.874;9.154;2024-02-21T12:18:58;100557.31;;;11.40;88.89
71465;BME280;59274;49.874;9.154;2024-02-21T12:21:29;100547.25;;;11.44;88.84
71465;BME280;59274;49.874;9.154;2024-02-21T12:23:56;100546.88;;;11.46;89.34
71465;BME280;59274;49.874;9.154;2024-02-21T12:26:22;100536.50;;;11.55;90.16
71465;BME280;59274;49.874;9.154;2024-02-21T12:28:47;100537.06;;;11.37;86.24
71465;BME280;59274;49.874;9.154;2024-02-21T12:31:13;100538.81;;;11.19;88.88
71465;BME280;59274;49.874;9.154;2024-02-21T12:33:39;100525.50;;;11.44;89.91
71465;BME280;59274;49.874;9.154;2024-02-21T12:36:04;100524.03;;;11.50;89.87
71465;BME280;59274;49.874;9.154;2024-02-21T12:38:30;100519.03;;;11.56;88.78
71465;BME280;59274;49.874;9.154;2024-02-21T12:40:56;100520.78;;;11.71;89.44
71465;BME280;59274;49.874;9.154;2024-02-21T12:43:25;100502.63;;;11.82;89.38
71465;BME280;59274;49.874;9.154;2024-02-21T12:45:51;100504.56;;;11.82;88.26
71465;BME280;59274;49.874;9.154;2024-02-21T12:48:16;100498.16;;;11.67;86.66
71465;BME280;59274;49.874;9.154;2024-02-21T12:50:49;100501.66;;;11.64;85.44
71465;BME280;59274;49.874;9.154;2024-02-21T12:53:17;100486.13;;;11.68;84.52
71465;BME280;59274;49.874;9.154;2024-02-21T12:55:45;100468.38;;;11.77;87.61
71465;BME280;59274;49.874;9.154;2024-02-21T12:58:11;100469.88;;;11.71;91.88
71465;BME280;59274;49.874;9.154;2024-02-21T13:00:36;100473.78;;;11.74;84.80